Friday, January 19, 2018, 10:41 AM EST
Back to Local

KBOS, Boston Logan International

Location: Boston, MA, United States Lat: 42.367
Local Time: 10:41 AM EST (15:41 GMT) Lon: -71.017
Time Zone: US/Eastern Elev: 19 ft

Show me the last for .
Show Decoded

2018-01-19 09:54 METAR KBOS 191454Z 27010KT 10SM BKN043 M02/M08 A2999 RMK AO2 SLP154 T10221078
                 51007 =
2018-01-19 08:54 METAR KBOS 191354Z 26007KT 9SM BKN042 BKN200 M03/M08 A2998 RMK AO2 SLP153
                 T10281078 =
2018-01-19 07:54 METAR KBOS 191254Z 29011KT 10SM BKN065 BKN120 M04/M08 A2997 RMK AO2 SLP148
                 T10391083 =
2018-01-19 06:54 METAR KBOS 191154Z 26009KT 10SM FEW120 FEW200 M04/M09 A2997 RMK AO2 PRESRR
                 SLP147 T10391089 11033 21050 51009 =
2018-01-19 05:54 METAR KBOS 191054Z 28011KT 10SM BKN120 BKN200 M04/M09 A2997 RMK AO2 SLP146
                 T10441089 =
2018-01-19 04:54 METAR KBOS 190954Z 27012KT 10SM BKN200 M04/M09 A2995 RMK AO2 SLP139 T10441094 =
2018-01-19 03:54 METAR KBOS 190854Z 29010KT 10SM FEW035 BKN200 M04/M09 A2994 RMK AO2 SLP138
                 T10441094 50005 =
2018-01-19 02:54 METAR KBOS 190754Z 28009KT 10SM FEW036 FEW200 M05/M09 A2994 RMK AO2 SLP138
                 T10501094 =
2018-01-19 01:54 METAR KBOS 190654Z 27011KT 10SM FEW035 M05/M09 A2994 RMK AO2 SLP139 T10501094 =
2018-01-19 00:54 METAR KBOS 190554Z 28009KT 10SM FEW035 M04/M09 A2993 RMK AO2 SLP133 T10441089
                 11022 21044 58008 =
2018-01-18 23:54 METAR KBOS 190454Z 28011KT 10SM FEW035 M04/M09 A2995 RMK AO2 SLP141 T10391089
                 400001061 =
2018-01-18 22:54 METAR KBOS 190354Z 29010KT 10SM FEW040 M04/M09 A2995 RMK AO2 SLP140 T10391089 =
2018-01-18 21:54 METAR KBOS 190254Z 28011KT 10SM FEW041 M03/M09 A2995 RMK AO2 SLP141 T10331089
                 51012 =
2018-01-18 20:54 METAR KBOS 190154Z 28009KT 10SM FEW040 SCT200 M03/M09 A2994 RMK AO2 SLP136
                 T10331089 =
2018-01-18 19:54 METAR KBOS 190054Z 30009KT 10SM FEW050 FEW200 M02/M09 A2993 RMK AO2 SLP134
                 T10221089 =
2018-01-18 18:54 METAR KBOS 182354Z 30011KT 10SM FEW050 FEW200 M02/M09 A2992 RMK AO2 SLP130
                 T10221089 11011 21022 51017 =
2018-01-18 17:54 METAR KBOS 182254Z 31009G19KT 10SM FEW045 FEW200 M02/M09 A2990 RMK AO2 SLP125
                 T10171089 =
2018-01-18 16:54 METAR KBOS 182154Z 32009KT 10SM FEW045 FEW200 M02/M09 A2989 RMK AO2 SLP120
                 T10171089 =
2018-01-18 15:54 METAR KBOS 182054Z 33011KT 10SM FEW045 FEW200 M01/M09 A2987 RMK AO2 SLP113
                 T10111089 55003 =
2018-01-18 14:54 METAR KBOS 181954Z 31011G19KT 10SM FEW200 M01/M09 A2985 RMK AO2 SLP108 T10111089
                 =
2018-01-18 13:54 METAR KBOS 181854Z 32012G19KT 10SM FEW200 M01/M08 A2986 RMK AO2 SLP110 T10111083
                 =
2018-01-18 12:54 METAR KBOS 181754Z 32011KT 10SM FEW200 M01/M08 A2988 RMK AO2 SLP116 T10111083
                 11011 21061 58033 =
2018-01-18 11:54 METAR KBOS 181654Z 29010KT 10SM FEW200 M02/M09 A2992 RMK AO2 SLP132 T10221089 =
2018-01-18 10:54 METAR KBOS 181554Z 30008KT 10SM FEW200 M03/M09 A2995 RMK AO2 SLP141 T10331094 =

Support USWX by starting your Amazon purchase here.